Time;durP1;ratioP1;P1;durP2;ratioP2;P2;SDS_P1;SDS_P2;PMS_P1;PMS_P2;Temp;Humidity;BMP_temperature;BMP_pressure;BME280_temperature;BME280_humidity;BME280_pressure;Samples;Min_cycle;Max_cycle;Signal;HPM_P1;HPM_P2
2024/01/13 00:01:38;;;;;;;12.77;9.82;;;;;;;16.43;32.57;102682.22;4230791;28;20108;-50
2024/01/13 00:03:44;;;;;;;13.45;10.38;;;;;;;16.41;32.38;102678.75;4230719;28;20050;-52
2024/01/13 00:05:51;;;;;;;12.95;10.02;;;;;;;16.45;32.40;102677.72;4230502;28;20044;-51
2024/01/13 00:07:53;;;;;;;;;;;;;;;16.45;32.14;102678.63;4231344;28;20051;-52
2024/01/13 00:09:55;;;;;;;14.10;10.48;;;;;;;16.44;32.49;102673.34;4230558;28;19929;-52
2024/01/13 00:11:56;;;;;;;12.85;10.18;;;;;;;16.45;32.15;102669.75;4230660;28;20054;-50
2024/01/13 00:13:58;;;;;;;13.70;10.27;;;;;;;16.47;32.54;102670.59;4230480;28;20097;-47
2024/01/13 00:16:00;;;;;;;12.07;9.48;;;;;;;16.47;32.18;102675.91;4228720;28;20102;-50
2024/01/13 00:18:02;;;;;;;;;;;;;;;16.45;32.14;102669.75;4231166;28;20049;-49
2024/01/13 00:20:04;;;;;;;12.63;9.57;;;;;;;16.41;32.46;102663.66;4230401;28;19920;-50
2024/01/13 00:22:06;;;;;;;12.75;9.95;;;;;;;16.44;32.43;102660.06;4230379;28;20047;-49
2024/01/13 00:24:08;;;;;;;12.55;9.50;;;;;;;16.45;32.18;102652.06;4229859;28;20056;-51
2024/01/13 00:26:10;;;;;;;12.63;10.20;;;;;;;16.49;32.17;102646.63;4226276;28;20093;-51
2024/01/13 00:28:12;;;;;;;11.95;9.55;;;;;;;16.51;32.43;102644.81;4214595;28;20086;-51
2024/01/13 00:30:24;;;;;;;13.55;10.05;;;;;;;16.52;32.06;102644.75;4229741;28;20048;-51
2024/01/13 00:32:26;;;;;;;;;;;;;;;16.52;32.02;102651.88;4231016;28;20039;-52
2024/01/13 00:34:28;;;;;;;12.68;10.05;;;;;;;16.47;32.28;102643.19;4230354;28;19949;-50
2024/01/13 00:36:30;;;;;;;13.45;10.85;;;;;;;16.46;32.01;102639.63;4230067;28;20048;-50
2024/01/13 00:38:31;;;;;;;14.13;10.98;;;;;;;16.45;32.42;102640.53;4230290;28;20074;-50
2024/01/13 00:40:37;;;;;;;14.27;11.18;;;;;;;16.43;32.08;102639.75;4230314;28;20059;-47
2024/01/13 00:42:41;;;;;;;14.95;11.93;;;;;;;16.40;32.08;102639.81;4230200;28;20071;-51
2024/01/13 00:44:42;;;;;;;15.43;11.35;;;;;;;16.38;32.22;102634.56;4229842;28;20051;-51
2024/01/13 00:46:44;;;;;;;14.52;11.90;;;;;;;16.43;32.03;102645.06;4230213;28;20075;-52
2024/01/13 00:48:46;;;;;;;15.05;11.40;;;;;;;16.44;31.98;102645.00;4230128;28;20047;-51
2024/01/13 00:50:48;;;;;;;13.20;10.43;;;;;;;16.47;32.20;102643.19;4230304;28;20044;-50
2024/01/13 00:52:49;;;;;;;14.73;11.15;;;;;;;16.50;31.92;102645.72;4230235;28;20047;-51
2024/01/13 00:54:51;;;;;;;13.88;10.90;;;;;;;16.50;32.18;102640.41;4230064;28;20048;-48
2024/01/13 00:56:53;;;;;;;13.73;11.10;;;;;;;16.50;32.10;102643.97;4228888;28;20055;-52
2024/01/13 00:58:55;;;;;;;13.82;10.88;;;;;;;16.50;32.21;102637.75;4229748;28;20039;-49
2024/01/13 01:00:59;;;;;;;13.88;10.80;;;;;;;16.48;32.32;102637.81;4230108;28;20044;-49
2024/01/13 01:03:01;;;;;;;13.10;9.98;;;;;;;16.46;32.09;102636.97;4230153;28;20101;-51
2024/01/13 01:05:04;;;;;;;12.93;10.35;;;;;;;16.43;32.10;102632.63;4230156;28;20051;-51
2024/01/13 01:07:05;;;;;;;13.73;10.80;;;;;;;16.45;32.10;102640.53;4229983;28;20526;-51
2024/01/13 01:09:07;;;;;;;13.48;10.45;;;;;;;16.47;32.39;102633.41;4230124;28;20044;-50
2024/01/13 01:11:09;;;;;;;13.38;10.48;;;;;;;16.50;32.04;102643.97;4230076;28;20506;-48
2024/01/13 01:13:12;;;;;;;13.52;10.38;;;;;;;16.49;32.25;102639.56;4229784;28;20044;-51
2024/01/13 01:15:14;;;;;;;13.85;10.20;;;;;;;16.50;32.27;102638.66;4230074;28;20048;-51
2024/01/13 01:17:16;;;;;;;13.20;10.30;;;;;;;16.50;32.44;102633.34;4229600;28;20055;-52
2024/01/13 01:19:17;;;;;;;12.68;10.10;;;;;;;16.51;32.14;102632.38;4230052;28;20422;-50
2024/01/13 01:21:19;;;;;;;;;;;;;;;16.50;32.25;102633.34;4230430;28;20043;-51
2024/01/13 01:23:21;;;;;;;12.30;9.63;;;;;;;16.45;32.42;102621.94;4230051;28;19926;-48
2024/01/13 01:25:23;;;;;;;13.80;9.90;;;;;;;16.48;32.08;102624.53;4229992;28;20055;-52
2024/01/13 01:27:25;;;;;;;13.13;9.93;;;;;;;16.49;32.13;102620.06;4214909;28;20048;-50
2024/01/13 01:29:26;;;;;;;12.25;9.57;;;;;;;16.50;32.12;102629.78;4225713;28;20055;-50
2024/01/13 01:31:28;;;;;;;13.38;9.40;;;;;;;16.42;32.39;102612.28;4229849;28;20051;-51
2024/01/13 01:33:30;;;;;;;11.65;9.35;;;;;;;16.50;32.13;102622.72;4229771;28;20059;-48
2024/01/13 01:35:31;;;;;;;;;;;;;;;16.49;31.98;102628.94;4232235;28;20051;-53
2024/01/13 01:37:34;;;;;;;11.60;8.93;;;;;;;16.49;32.17;102628.94;4233099;28;19920;-51
2024/01/13 01:39:35;;;;;;;11.93;9.25;;;;;;;16.52;32.07;102638.59;4232807;28;20062;-50
2024/01/13 01:41:37;;;;;;;12.07;8.95;;;;;;;16.52;32.02;102642.09;4232806;28;20111;-51
2024/01/13 01:43:39;;;;;;;12.38;9.57;;;;;;;16.50;32.29;102629.78;4232904;28;20578;-48
2024/01/13 01:45:41;;;;;;;12.30;9.52;;;;;;;16.49;32.47;102633.34;4232761;28;20051;-50
2024/01/13 01:47:43;;;;;;;11.90;9.25;;;;;;;16.47;32.46;102635.22;4232754;28;20127;-47
2024/01/13 01:49:46;;;;;;;12.52;9.00;;;;;;;16.44;32.18;102642.34;4232860;28;20053;-50
2024/01/13 01:51:49;;;;;;;11.70;8.45;;;;;;;16.46;32.21;102634.31;4232846;28;20055;-51
2024/01/13 01:53:51;;;;;;;12.93;8.80;;;;;;;16.50;32.18;102638.66;4232947;28;20059;-50
2024/01/13 01:55:54;;;;;;;12.73;9.00;;;;;;;16.53;32.12;102630.56;4232361;28;20050;-52
2024/01/13 01:58:00;;;;;;;11.38;8.40;;;;;;;16.56;32.10;102629.59;4231433;28;20056;-50
2024/01/13 02:00:02;;;;;;;11.65;8.93;;;;;;;16.59;32.01;102632.19;4232747;27;20081;-50
2024/01/13 02:02:06;;;;;;;11.63;8.13;;;;;;;16.59;32.34;102625.06;4232644;28;20104;-51
2024/01/13 02:04:07;;;;;;;11.88;9.00;;;;;;;16.59;32.14;102630.38;4232598;28;20495;-49
2024/01/13 02:06:10;;;;;;;12.50;9.35;;;;;;;16.58;32.22;102628.63;4232623;27;20570;-47
2024/01/13 02:08:13;;;;;;;11.80;8.60;;;;;;;16.57;32.03;102628.69;4232639;28;20421;-46
2024/01/13 02:10:31;;;;;;;12.18;8.90;;;;;;;16.54;32.05;102628.81;4232228;28;20171;-47
2024/01/13 02:12:33;;;;;;;;;;;;;;;16.53;31.88;102622.59;4232955;28;20059;-49
2024/01/13 02:14:35;;;;;;;11.65;8.32;;;;;;;16.49;32.33;102620.97;4232452;28;19924;-50
2024/01/13 02:16:36;;;;;;;11.10;8.48;;;;;;;16.53;32.11;102619.94;4232545;28;20055;-51
2024/01/13 02:18:39;;;;;;;12.82;8.55;;;;;;;16.58;32.08;102619.81;4232606;28;20415;-51
2024/01/13 02:20:44;;;;;;;12.68;9.23;;;;;;;16.61;32.25;102614.41;4232456;28;20051;-51
2024/01/13 02:22:45;;;;;;;11.45;8.68;;;;;;;16.62;31.92;102618.78;4232305;28;20044;-52
2024/01/13 02:24:47;;;;;;;11.43;8.55;;;;;;;16.60;32.01;102618.00;4231828;28;20043;-50
2024/01/13 02:26:49;;;;;;;12.30;9.27;;;;;;;16.61;32.11;102617.06;4222837;28;20063;-50
2024/01/13 02:28:50;;;;;;;13.02;9.23;;;;;;;16.60;32.14;102612.66;4223166;28;20478;-50
2024/01/13 02:30:52;;;;;;;11.70;8.70;;;;;;;16.60;32.07;102618.00;4232004;28;20043;-50
2024/01/13 02:32:54;;;;;;;11.88;9.15;;;;;;;16.58;31.89;102617.16;4232195;28;20490;-48
2024/01/13 02:34:56;;;;;;;;;;;;;;;16.52;31.80;102614.69;4232513;28;20055;-51
2024/01/13 02:36:57;;;;;;;12.15;9.43;;;;;;;16.50;31.99;102608.53;4232289;28;19919;-49
2024/01/13 02:38:59;;;;;;;11.63;9.15;;;;;;;16.52;31.78;102604.06;4231825;28;20052;-49
2024/01/13 02:41:01;;;;;;;12.68;9.10;;;;;;;16.54;32.25;102602.25;4230715;28;20051;-52
2024/01/13 02:43:03;;;;;;;10.93;8.18;;;;;;;16.59;32.02;102606.47;4232167;28;20055;-52
2024/01/13 02:45:05;;;;;;;12.68;9.35;;;;;;;16.60;31.86;102594.06;4231741;28;20119;-51
2024/01/13 02:47:06;;;;;;;13.05;9.68;;;;;;;16.61;32.16;102588.72;4230974;28;20051;-48
2024/01/13 02:49:08;;;;;;;11.68;8.45;;;;;;;16.59;32.10;102595.84;4231997;28;20067;-49
2024/01/13 02:51:14;;;;;;;;;;;;;;;16.59;31.61;102597.66;4232220;28;20049;-47
2024/01/13 02:53:18;;;;;;;12.05;8.80;;;;;;;16.56;32.02;102592.41;4231849;28;19919;-50
2024/01/13 02:55:19;;;;;;;10.82;8.88;;;;;;;16.55;31.92;102595.97;4231497;27;20047;-50
2024/01/13 02:57:21;;;;;;;11.80;8.65;;;;;;;16.56;32.22;102587.09;4230384;28;20561;-48
2024/01/13 02:59:23;;;;;;;12.18;8.95;;;;;;;16.55;32.12;102585.34;4231841;28;20514;-51
2024/01/13 03:01:25;;;;;;;12.32;9.05;;;;;;;16.58;32.06;102587.94;4231578;28;20053;-50
2024/01/13 03:03:27;;;;;;;;;;;;;;;16.53;31.72;102571.28;4232117;28;20083;-51
2024/01/13 03:05:29;;;;;;;11.98;8.05;;;;;;;16.58;31.95;102577.31;4230526;28;19919;-50
2024/01/13 03:07:30;;;;;;;11.73;8.63;;;;;;;16.61;32.15;102579.88;4231771;28;20044;-52
2024/01/13 03:09:32;;;;;;;12.48;8.82;;;;;;;16.61;32.01;102570.13;4231264;28;20532;-52
2024/01/13 03:11:34;;;;;;;12.35;8.82;;;;;;;16.61;32.01;102571.91;4231636;28;20055;-48
2024/01/13 03:13:36;;;;;;;9.98;7.57;;;;;;;16.59;32.00;102566.63;4231491;28;20047;-50
2024/01/13 03:15:38;;;;;;;11.82;8.23;;;;;;;16.58;31.80;102556.06;4231552;28;20071;-50
2024/01/13 03:17:39;;;;;;;11.57;8.02;;;;;;;16.55;32.00;102557.03;4231512;28;20055;-50
2024/01/13 03:19:41;;;;;;;12.13;8.82;;;;;;;16.52;32.09;102550.94;4231281;28;20047;-52
2024/01/13 03:21:43;;;;;;;11.73;8.25;;;;;;;16.55;31.83;102556.13;4231375;28;20047;-50
2024/01/13 03:23:45;;;;;;;10.60;8.45;;;;;;;16.57;31.93;102555.19;4229789;28;20201;-49
2024/01/13 03:25:48;;;;;;;11.60;7.72;;;;;;;16.60;31.92;102560.41;4230473;27;20100;-51
2024/01/13 03:27:49;;;;;;;;;;;;;;;16.60;31.95;102551.56;4214865;28;20086;-51
2024/01/13 03:29:51;;;;;;;11.25;8.52;;;;;;;16.58;32.08;102550.75;4230604;28;19920;-48
2024/01/13 03:31:52;;;;;;;11.02;8.07;;;;;;;16.60;31.86;102543.59;4231313;28;20630;-51
2024/01/13 03:33:54;;;;;;;10.70;8.02;;;;;;;16.59;31.88;102541.88;4231196;28;20070;-54
2024/01/13 03:35:56;;;;;;;10.70;7.70;;;;;;;16.57;32.01;102539.25;4231065;28;20078;-50
2024/01/13 03:37:58;;;;;;;10.68;7.68;;;;;;;16.56;31.82;102532.22;4230793;28;20101;-52
2024/01/13 03:39:59;;;;;;;11.10;7.72;;;;;;;16.55;32.12;102527.81;4231230;28;20094;-48
2024/01/13 03:42:01;;;;;;;10.07;7.30;;;;;;;16.56;31.43;102528.66;4230935;28;20048;-49
2024/01/13 03:44:03;;;;;;;10.65;7.68;;;;;;;16.57;31.82;102530.41;4231143;28;20473;-49
2024/01/13 03:46:05;;;;;;;11.35;7.70;;;;;;;16.58;32.14;102526.84;4231024;28;20395;-47
2024/01/13 03:48:07;;;;;;;;;;;;;;;16.59;31.93;102520.63;4231487;28;20063;-49
2024/01/13 03:50:09;;;;;;;10.05;7.25;;;;;;;16.56;32.01;102512.72;4230988;28;20406;-49
2024/01/13 03:52:10;;;;;;;9.52;6.72;;;;;;;16.57;31.76;102506.50;4230419;28;20043;-48
2024/01/13 03:54:12;;;;;;;10.55;7.28;;;;;;;16.55;31.75;102513.63;4230655;28;20118;-52
2024/01/13 03:56:14;;;;;;;8.52;6.60;;;;;;;16.51;31.96;102507.56;4230609;28;20047;-51
2024/01/13 03:58:15;;;;;;;9.73;6.90;;;;;;;16.48;31.75;102505.00;4229897;28;20047;-48
2024/01/13 04:00:18;;;;;;;10.63;7.30;;;;;;;16.47;31.86;102502.41;4230864;28;20048;-53
2024/01/13 04:02:24;;;;;;;10.18;7.22;;;;;;;16.44;31.83;102500.72;4230763;28;20039;-51
2024/01/13 04:04:26;;;;;;;9.27;6.65;;;;;;;16.45;31.95;102497.13;4230882;28;20047;-51
2024/01/13 04:06:28;;;;;;;10.45;7.40;;;;;;;16.49;31.68;102498.78;4230482;28;20047;-50
2024/01/13 04:08:29;;;;;;;9.00;6.35;;;;;;;16.52;31.63;102498.69;4230650;28;20536;-52
2024/01/13 04:10:31;;;;;;;9.55;6.40;;;;;;;16.53;31.64;102496.91;4230609;28;20043;-49
2024/01/13 04:12:33;;;;;;;9.30;6.30;;;;;;;16.57;31.91;102503.84;4230695;28;20052;-52
2024/01/13 04:14:35;;;;;;;8.60;6.20;;;;;;;16.58;31.64;102497.63;4230587;28;20043;-51
2024/01/13 04:16:36;;;;;;;9.02;6.45;;;;;;;16.58;31.81;102500.28;4229443;28;20043;-51
2024/01/13 04:18:38;;;;;;;8.85;6.07;;;;;;;16.57;31.93;102493.22;4230532;28;20039;-53
2024/01/13 04:20:41;;;;;;;8.00;6.07;;;;;;;16.55;31.87;102490.63;4230184;28;20122;-48
2024/01/13 04:22:43;;;;;;;8.98;6.38;;;;;;;16.55;31.67;102487.97;4230527;28;20047;-46
2024/01/13 04:24:45;;;;;;;8.20;5.93;;;;;;;16.54;31.85;102485.38;4230427;28;20066;-51
2024/01/13 04:26:46;;;;;;;8.90;6.20;;;;;;;16.54;31.91;102482.72;4221300;28;20036;-47
2024/01/13 04:28:48;;;;;;;9.63;6.50;;;;;;;16.55;31.79;102480.00;4220981;28;20067;-48
2024/01/13 04:30:50;;;;;;;10.35;6.50;;;;;;;16.58;31.62;102477.22;4229031;28;20052;-51
2024/01/13 04:32:52;;;;;;;8.57;6.25;;;;;;;16.60;31.62;102485.16;4230433;28;20146;-51
2024/01/13 04:34:54;;;;;;;;;;;;;;;16.60;31.76;102488.69;4230440;28;20052;-49
2024/01/13 04:36:56;;;;;;;9.23;6.50;;;;;;;16.59;31.26;102489.59;4229896;28;20463;-52
2024/01/13 04:38:57;;;;;;;8.90;6.45;;;;;;;16.60;31.86;102495.78;4230389;28;20423;-51
2024/01/13 04:40:59;;;;;;;8.95;6.22;;;;;;;16.58;31.88;102487.00;4230461;28;20047;-51
2024/01/13 04:43:01;;;;;;;9.43;6.53;;;;;;;16.56;31.77;102492.38;4230304;28;20048;-49
2024/01/13 04:45:03;;;;;;;9.07;6.32;;;;;;;16.54;31.69;102490.69;4230351;28;20043;-49
2024/01/13 04:47:05;;;;;;;9.18;6.47;;;;;;;16.54;31.90;102496.84;4230266;28;20090;-50
2024/01/13 04:49:07;;;;;;;8.98;6.35;;;;;;;16.55;31.84;102493.28;4230214;28;20063;-50
2024/01/13 04:51:08;;;;;;;8.45;6.40;;;;;;;16.57;31.76;102488.78;4230180;28;20185;-47
2024/01/13 04:53:10;;;;;;;8.82;6.10;;;;;;;16.60;31.75;102487.81;4230242;28;20054;-48
2024/01/13 04:55:12;;;;;;;9.52;6.55;;;;;;;16.61;31.68;102477.13;4230442;28;20490;-52
2024/01/13 04:57:14;;;;;;;9.57;6.53;;;;;;;16.61;31.55;102471.81;4229903;28;20056;-46
2024/01/13 04:59:18;;;;;;;8.43;6.40;;;;;;;16.60;31.37;102471.88;4230115;28;20490;-50
2024/01/13 05:01:20;;;;;;;9.13;6.82;;;;;;;16.60;31.79;102469.22;4230115;28;20046;-51
2024/01/13 05:03:21;;;;;;;9.35;6.97;;;;;;;16.59;31.84;102465.69;4230214;28;20452;-53
2024/01/13 05:05:23;;;;;;;8.40;6.43;;;;;;;16.57;31.86;102459.56;4230130;28;20165;-52
2024/01/13 05:07:25;;;;;;;8.23;6.18;;;;;;;16.54;31.77;102453.50;4230447;28;20434;-54
2024/01/13 05:09:26;;;;;;;9.05;6.50;;;;;;;16.55;31.83;102463.16;4230785;28;20297;-53
2024/01/13 05:11:28;;;;;;;9.35;6.43;;;;;;;16.54;31.89;102464.13;4233664;28;20094;-53
2024/01/13 05:13:30;;;;;;;9.63;6.95;;;;;;;16.54;31.56;102462.31;4233620;28;20074;-54
2024/01/13 05:15:31;;;;;;;9.35;6.57;;;;;;;16.57;31.81;102451.59;4233764;28;20071;-53
2024/01/13 05:17:33;;;;;;;8.73;6.40;;;;;;;16.59;31.99;102457.72;4233930;28;20077;-51
2024/01/13 05:19:35;;;;;;;9.15;6.45;;;;;;;16.61;31.93;102447.06;4233380;28;20126;-53
2024/01/13 05:21:37;;;;;;;9.10;6.45;;;;;;;16.61;31.62;102447.06;4233414;28;20040;-51
2024/01/13 05:23:38;;;;;;;8.60;6.35;;;;;;;16.60;31.66;102443.53;4232316;28;20039;-52
2024/01/13 05:25:40;;;;;;;9.32;6.78;;;;;;;16.59;31.51;102447.09;4233621;28;20119;-52
2024/01/13 05:27:42;;;;;;;8.25;6.15;;;;;;;16.59;31.58;102440.94;4216824;28;20524;-52
2024/01/13 05:29:43;;;;;;;8.80;6.18;;;;;;;16.56;31.58;102441.00;4231622;28;20448;-51
2024/01/13 05:31:46;;;;;;;;;;;;;;;16.54;31.77;102434.91;4234030;28;20391;-52
2024/01/13 05:33:48;;;;;;;8.88;6.03;;;;;;;16.54;31.83;102438.41;4233024;28;19920;-49
2024/01/13 05:35:50;;;;;;;9.38;5.85;;;;;;;16.58;31.84;102425.91;4233256;28;20071;-52
2024/01/13 05:37:51;;;;;;;8.60;6.28;;;;;;;16.61;31.62;102426.66;4232001;28;20093;-52
2024/01/13 05:39:53;;;;;;;8.05;5.93;;;;;;;16.65;31.67;102418.56;4233390;28;20059;-52
2024/01/13 05:41:58;;;;;;;8.68;6.15;;;;;;;16.65;31.70;102430.09;4232053;28;20055;-52
2024/01/13 05:44:00;;;;;;;8.50;5.82;;;;;;;16.66;31.68;102425.63;4233095;28;20043;-52
2024/01/13 05:46:01;;;;;;;8.25;5.75;;;;;;;16.61;31.79;102423.16;4233197;28;20122;-53
2024/01/13 05:48:03;;;;;;;9.25;6.10;;;;;;;16.61;31.65;102426.66;4232882;28;20051;-53
2024/01/13 05:50:06;;;;;;;8.77;6.18;;;;;;;16.57;31.76;102417.06;4233130;28;20063;-54
2024/01/13 05:52:10;;;;;;;8.27;6.07;;;;;;;16.57;31.60;102419.72;4233206;28;20087;-51
2024/01/13 05:54:12;;;;;;;8.15;5.55;;;;;;;16.56;31.74;102412.69;4233145;28;20044;-54
2024/01/13 05:56:13;;;;;;;;;;;;;;;16.58;31.81;102415.28;4233433;28;20061;-51
2024/01/13 05:58:15;;;;;;;8.15;5.60;;;;;;;16.60;31.86;102402.81;4233228;28;19920;-51
2024/01/13 06:00:17;;;;;;;8.68;6.07;;;;;;;16.62;31.54;102411.59;4233049;28;20048;-52
2024/01/13 06:02:19;;;;;;;;;;;;;;;16.63;31.53;102410.66;4233150;27;20127;-53
2024/01/13 06:04:20;;;;;;;8.75;5.78;;;;;;;16.60;31.73;102403.69;4233020;28;20279;-53
2024/01/13 06:06:22;;;;;;;;;;;;;;;16.61;31.58;102408.06;4233500;28;20054;-50
2024/01/13 06:08:24;;;;;;;8.80;5.72;;;;;;;16.60;31.70;102401.03;4232948;28;19923;-53
2024/01/13 06:10:28;;;;;;;7.88;5.88;;;;;;;16.59;31.61;102401.94;4232616;28;20105;-52
2024/01/13 06:12:30;;;;;;;8.50;5.68;;;;;;;16.60;31.82;102394.84;4232850;28;20510;-52
2024/01/13 06:14:32;;;;;;;;;;;;;;;16.58;31.74;102394.03;4233263;28;20048;-51
2024/01/13 06:16:33;;;;;;;8.85;5.90;;;;;;;16.56;31.61;102393.19;4232699;28;19919;-53
2024/01/13 06:18:35;;;;;;;7.90;5.55;;;;;;;16.56;31.64;102391.44;4232043;28;20051;-50
2024/01/13 06:20:38;;;;;;;8.52;5.90;;;;;;;16.61;31.61;102391.28;4232299;28;20501;-54
2024/01/13 06:22:39;;;;;;;7.90;5.78;;;;;;;16.64;31.72;102396.47;4231978;28;20044;-55
2024/01/13 06:24:41;;;;;;;8.00;5.57;;;;;;;16.66;31.25;102388.44;4232474;28;20100;-55
2024/01/13 06:26:43;;;;;;;7.43;5.60;;;;;;;16.67;31.44;102382.22;4223991;28;20457;-52
2024/01/13 06:28:45;;;;;;;8.38;5.95;;;;;;;16.68;31.70;102386.59;4222295;28;20047;-52
2024/01/13 06:30:47;;;;;;;8.50;5.95;;;;;;;16.65;31.68;102394.66;4232556;28;20101;-53
2024/01/13 06:32:48;;;;;;;8.75;6.07;;;;;;;16.63;31.72;102385.91;4232344;28;20119;-51
2024/01/13 06:34:50;;;;;;;7.93;5.82;;;;;;;16.61;31.66;102384.16;4232357;27;20044;-52
2024/01/13 06:36:52;;;;;;;7.90;5.57;;;;;;;16.57;31.22;102379.88;4231010;28;20050;-52
2024/01/13 06:38:54;;;;;;;7.90;5.20;;;;;;;16.55;31.71;102380.84;4232214;28;20043;-52
2024/01/13 06:40:55;;;;;;;;;;;;;;;16.55;31.65;102388.81;4232814;28;20043;-52
2024/01/13 06:42:57;;;;;;;8.05;5.72;;;;;;;16.53;31.63;102393.31;4232490;27;19927;-53
2024/01/13 06:44:59;;;;;;;8.13;5.90;;;;;;;16.53;31.45;102393.31;4232016;28;20071;-54
2024/01/13 06:47:02;;;;;;;9.15;6.47;;;;;;;16.53;31.52;102398.63;4231822;28;20047;-54
2024/01/13 06:49:03;;;;;;;7.75;5.65;;;;;;;16.54;31.66;102400.38;4232079;28;20525;-53
2024/01/13 06:51:05;;;;;;;7.85;5.50;;;;;;;16.53;31.58;102398.63;4232151;28;20470;-53
2024/01/13 06:53:07;;;;;;;8.25;5.80;;;;;;;16.52;31.47;102391.59;4232260;28;20044;-53
2024/01/13 06:55:09;;;;;;;8.77;6.20;;;;;;;16.50;31.34;102390.75;4232230;28;20046;-52
2024/01/13 06:57:10;;;;;;;7.30;5.03;;;;;;;16.48;31.51;102379.31;4231841;27;20050;-49
2024/01/13 06:59:12;;;;;;;;;;;;;;;16.45;31.23;102389.13;4232527;28;20122;-53
2024/01/13 07:01:17;;;;;;;7.85;5.43;;;;;;;16.43;31.57;102385.66;4231754;28;19951;-53
2024/01/13 07:03:19;;;;;;;7.80;5.65;;;;;;;16.48;31.58;102385.50;4231650;28;20051;-51
2024/01/13 07:05:21;;;;;;;8.77;6.00;;;;;;;16.51;31.51;102381.88;4230819;28;20122;-53
2024/01/13 07:07:22;;;;;;;7.43;5.40;;;;;;;16.54;31.42;102376.47;4232097;28;20070;-51
2024/01/13 07:09:24;;;;;;;7.80;5.35;;;;;;;16.54;31.83;102374.66;4231941;28;20206;-53
2024/01/13 07:11:27;;;;;;;7.68;5.43;;;;;;;16.56;31.56;102377.25;4231969;28;20040;-52
2024/01/13 07:13:28;;;;;;;8.68;5.40;;;;;;;16.52;31.56;102384.47;4231856;28;20043;-53
2024/01/13 07:15:30;;;;;;;7.03;5.13;;;;;;;16.54;31.53;102387.09;4231577;27;20054;-52
2024/01/13 07:17:32;;;;;;;;;;;;;;;16.50;31.20;102388.09;4232321;28;20131;-52
2024/01/13 07:19:35;;;;;;;7.55;5.57;;;;;;;16.47;31.69;102390.88;4231654;28;19919;-53
2024/01/13 07:21:37;;;;;;;7.35;4.82;;;;;;;16.46;31.58;102382.03;4231585;28;20054;-54
2024/01/13 07:23:43;;;;;;;7.40;5.07;;;;;;;16.49;31.60;102383.72;4231725;28;20048;-51
2024/01/13 07:25:45;;;;;;;7.43;5.30;;;;;;;16.50;31.56;102374.81;4231140;28;20051;-51
2024/01/13 07:27:47;;;;;;;7.50;5.25;;;;;;;16.52;31.45;102373.84;4213720;28;20068;-52
2024/01/13 07:29:49;;;;;;;7.72;5.20;;;;;;;16.54;31.78;102376.47;4230152;28;20109;-51
2024/01/13 07:32:01;;;;;;;7.90;5.28;;;;;;;16.55;31.42;102375.53;4231491;28;20047;-53
2024/01/13 07:34:02;;;;;;;7.55;5.50;;;;;;;16.57;31.44;102379.88;4231254;28;20472;-52
2024/01/13 07:36:06;;;;;;;6.90;4.97;;;;;;;16.57;31.25;102373.69;4231368;28;20063;-52
2024/01/13 07:38:08;;;;;;;7.60;5.05;;;;;;;16.55;31.42;102367.56;4231299;28;20043;-50
2024/01/13 07:40:10;;;;;;;7.68;5.28;;;;;;;16.55;31.54;102371.09;4231401;28;20070;-50
2024/01/13 07:42:12;;;;;;;7.57;5.00;;;;;;;16.53;31.31;102370.28;4230212;28;20051;-52
2024/01/13 07:44:14;;;;;;;7.72;5.15;;;;;;;16.51;31.60;102369.44;4230820;28;20418;-52
2024/01/13 07:46:15;;;;;;;7.15;5.10;;;;;;;16.52;31.42;102373.00;4231595;28;20071;-52
2024/01/13 07:48:17;;;;;;;6.75;4.78;;;;;;;16.54;31.06;102368.50;4231203;28;20094;-53
2024/01/13 07:50:19;;;;;;;7.07;4.70;;;;;;;16.55;31.31;102359.59;4231225;28;20498;-52
2024/01/13 07:52:21;;;;;;;7.05;4.55;;;;;;;16.56;31.36;102354.25;4231237;28;20043;-54
2024/01/13 07:54:23;;;;;;;7.53;5.10;;;;;;;16.59;31.04;102350.59;4231328;28;20044;-54
2024/01/13 07:56:25;;;;;;;7.32;5.10;;;;;;;16.58;31.41;102351.53;4230983;28;20245;-53
2024/01/13 07:58:27;;;;;;;7.10;5.35;;;;;;;16.57;31.45;102349.78;4230754;28;20486;-54
2024/01/13 08:00:28;;;;;;;7.03;5.07;;;;;;;16.55;31.19;102352.50;4231024;28;20044;-54
2024/01/13 08:02:30;;;;;;;7.82;5.78;;;;;;;16.53;31.31;102362.31;4231062;28;20126;-52
2024/01/13 08:04:32;;;;;;;7.30;5.03;;;;;;;16.51;31.30;102350.00;4231140;28;20047;-54
2024/01/13 08:06:34;;;;;;;7.93;5.30;;;;;;;16.53;31.33;102345.50;4231013;27;20060;-53
2024/01/13 08:08:35;;;;;;;;;;;;;;;16.51;31.33;102347.34;4231285;28;20425;-51
2024/01/13 08:10:38;;;;;;;7.90;5.10;;;;;;;16.53;31.55;102343.72;4230943;28;20349;-54
2024/01/13 08:12:39;;;;;;;7.63;5.30;;;;;;;16.58;31.29;102335.59;4230448;28;20043;-53
2024/01/13 08:14:41;;;;;;;7.70;5.60;;;;;;;16.60;31.51;102336.41;4231261;28;20044;-53
2024/01/13 08:16:43;;;;;;;7.55;5.75;;;;;;;16.60;31.42;102334.63;4230818;28;20070;-53
2024/01/13 08:18:45;;;;;;;;;;;;;;;16.59;31.15;102335.53;4229996;28;20089;-52
2024/01/13 08:20:47;;;;;;;8.18;5.45;;;;;;;16.58;31.40;102335.59;4230911;28;19920;-52
2024/01/13 08:22:48;;;;;;;8.48;6.03;;;;;;;16.58;31.48;102330.28;4230731;28;20491;-52
2024/01/13 08:24:50;;;;;;;8.48;5.90;;;;;;;16.57;31.29;102331.19;4230847;28;20051;-54
2024/01/13 08:26:52;;;;;;;8.60;5.97;;;;;;;16.57;31.22;102331.19;4220861;28;20105;-53
2024/01/13 08:28:53;;;;;;;8.13;5.85;;;;;;;16.55;31.52;102328.59;4221724;28;20403;-51
2024/01/13 08:30:55;;;;;;;7.95;5.63;;;;;;;16.57;31.48;102337.41;4230890;28;20055;-53
2024/01/13 08:32:57;;;;;;;9.07;6.78;;;;;;;16.59;31.10;102321.41;4230796;28;20088;-51
2024/01/13 08:34:59;;;;;;;8.23;5.50;;;;;;;16.60;31.27;102320.47;4230666;28;20392;-53
2024/01/13 08:37:01;;;;;;;8.80;5.97;;;;;;;16.63;31.40;102325.66;4230545;28;20043;-52
2024/01/13 08:39:03;;;;;;;10.20;6.97;;;;;;;16.65;31.51;102326.50;4230444;28;20126;-51
2024/01/13 08:41:04;;;;;;;;;;;;;;;16.64;31.19;102324.75;4231053;28;20055;-52
2024/01/13 08:43:08;;;;;;;8.85;6.40;;;;;;;16.59;31.40;102326.72;4230202;28;20404;-50
2024/01/13 08:45:10;;;;;;;9.00;6.13;;;;;;;16.59;31.62;102326.72;4230067;28;20138;-52
2024/01/13 08:47:11;;;;;;;10.02;6.65;;;;;;;16.56;31.45;102335.66;4230453;28;20040;-51
2024/01/13 08:49:13;;;;;;;8.68;6.43;;;;;;;16.57;31.36;102333.84;4230410;28;20032;-51
2024/01/13 08:51:15;;;;;;;9.32;6.45;;;;;;;16.58;31.60;102335.59;4230454;28;20627;-55
2024/01/13 08:53:33;;;;;;;8.02;6.10;;;;;;;16.57;31.40;102339.16;4230250;28;20043;-50
2024/01/13 08:55:35;;;;;;;8.85;6.53;;;;;;;16.59;31.47;102347.97;4230469;28;20051;-54
2024/01/13 08:57:36;;;;;;;8.85;6.35;;;;;;;16.60;31.00;102349.69;4229880;28;20434;-50
2024/01/13 08:59:38;;;;;;;8.60;6.03;;;;;;;16.59;31.30;102345.31;4230305;28;20128;-51
2024/01/13 09:01:40;;;;;;;8.88;6.60;;;;;;;16.60;31.23;102352.34;4230501;28;20055;-51
2024/01/13 09:03:42;;;;;;;9.40;6.60;;;;;;;16.59;31.41;102367.41;4230499;28;20075;-50
2024/01/13 09:05:44;;;;;;;9.55;6.68;;;;;;;16.58;31.42;102378.09;4229133;28;20127;-51
2024/01/13 09:07:45;;;;;;;9.52;7.00;;;;;;;16.56;31.41;102386.13;4230570;28;20051;-53
2024/01/13 09:09:47;;;;;;;8.82;6.18;;;;;;;16.52;31.22;102379.16;4230281;28;20044;-54
2024/01/13 09:11:49;;;;;;;9.57;7.20;;;;;;;16.52;31.31;102378.31;4230018;28;20122;-52
2024/01/13 09:13:50;;;;;;;8.27;6.05;;;;;;;16.47;31.44;102375.78;4230379;28;20048;-52
2024/01/13 09:15:52;;;;;;;9.10;6.75;;;;;;;16.51;31.44;102376.56;4229003;28;20056;-52
2024/01/13 09:17:56;;;;;;;9.50;7.13;;;;;;;16.51;31.24;102369.44;4230359;28;20081;-53
2024/01/13 09:19:58;;;;;;;9.68;7.05;;;;;;;16.50;31.23;102357.13;4230106;28;20464;-49
2024/01/13 09:21:59;;;;;;;10.88;7.07;;;;;;;16.51;31.36;102365.94;4230110;28;20056;-52
2024/01/13 09:24:01;;;;;;;9.50;7.00;;;;;;;16.50;31.38;102370.41;4230192;28;20490;-51
2024/01/13 09:26:03;;;;;;;10.27;6.82;;;;;;;16.49;31.30;102366.00;4226792;28;20717;-53
2024/01/13 09:28:05;;;;;;;8.82;6.20;;;;;;;16.47;31.19;102356.34;4214843;28;20399;-54
2024/01/13 09:30:07;;;;;;;9.48;6.38;;;;;;;16.44;31.38;102350.22;4230146;28;20055;-54